createdAt,value
2022-09-09T00:00:13.956Z,97304.59
2022-09-09T00:02:40.003Z,97310.53
2022-09-09T00:05:06.023Z,97306.53
2022-09-09T00:07:32.707Z,97312.13
2022-09-09T00:09:58.711Z,97303.31
2022-09-09T00:12:24.676Z,97312.63
2022-09-09T00:14:50.605Z,97312.63
2022-09-09T00:17:16.562Z,97319.03
2022-09-09T00:19:42.554Z,97323.00
2022-09-09T00:22:09.273Z,97329.44
2022-09-09T00:24:35.222Z,97318.00
2022-09-09T00:27:01.149Z,97326.88
2022-09-09T00:29:27.134Z,97314.81
2022-09-09T00:31:53.110Z,97310.91
2022-09-09T00:34:19.062Z,97314.81
2022-09-09T00:36:45.058Z,97309.22
2022-09-09T00:39:11.075Z,97320.19
2022-09-09T00:41:36.996Z,97316.09
2022-09-09T00:44:02.956Z,97317.38
2022-09-09T00:46:29.660Z,97312.69
2022-09-09T00:48:55.719Z,97317.78
2022-09-09T00:51:22.444Z,97322.22
2022-09-09T00:53:48.451Z,97308.50
2022-09-09T00:56:14.404Z,97319.56
2022-09-09T00:58:41.095Z,97315.03
2022-09-09T01:01:07.162Z,97311.41
2022-09-09T01:03:33.145Z,97313.50
2022-09-09T01:05:59.102Z,97305.66
2022-09-09T01:08:25.064Z,97306.59
2022-09-09T01:10:51.831Z,97306.69
2022-09-09T01:13:18.607Z,97300.72
2022-09-09T01:15:45.290Z,97313.81
2022-09-09T01:18:11.249Z,97309.09
2022-09-09T01:20:37.183Z,97313.47
2022-09-09T01:23:03.713Z,97313.47
2022-09-09T01:25:29.655Z,97311.63
2022-09-09T01:27:55.619Z,97313.03
2022-09-09T01:30:21.580Z,97313.44
2022-09-09T01:32:47.522Z,97317.94
2022-09-09T01:35:13.488Z,97315.63
2022-09-09T01:37:40.191Z,97329.91
2022-09-09T01:40:07.111Z,97329.19
2022-09-09T01:42:33.087Z,97319.53
2022-09-09T01:44:59.024Z,97327.16
2022-09-09T01:47:24.993Z,97321.78
2022-09-09T01:49:51.653Z,97326.63
2022-09-09T01:52:18.268Z,97322.25
2022-09-09T01:54:45.075Z,97325.47
2022-09-09T01:57:11.401Z,97323.97
2022-09-09T01:59:37.326Z,97318.41
2022-09-09T02:04:43.875Z,97319.13
2022-09-09T02:15:11.650Z,97322.63
2022-09-09T04:20:37.386Z,97351.59
2022-09-09T04:23:03.362Z,97344.84
2022-09-09T04:25:29.332Z,97354.91
2022-09-09T04:27:55.408Z,97341.59
2022-09-09T04:30:21.336Z,97344.34
2022-09-09T04:32:48.099Z,97348.00
2022-09-09T04:35:14.061Z,97346.97
2022-09-09T04:37:40.025Z,97351.28
2022-09-09T04:40:06.718Z,97334.66
2022-09-09T04:42:32.704Z,97337.16
2022-09-09T04:44:58.672Z,97338.06
2022-09-09T04:47:24.619Z,97330.00
2022-09-09T04:49:50.591Z,97333.72
2022-09-09T04:52:16.562Z,97332.09
2022-09-09T04:54:42.500Z,97339.63
2022-09-09T04:57:09.401Z,97336.38
2022-09-09T04:59:35.387Z,97329.81
2022-09-09T05:02:01.470Z,97336.84
2022-09-09T05:04:28.397Z,97341.69
2022-09-09T05:06:54.332Z,97343.88
2022-09-09T05:09:20.278Z,97345.41
2022-09-09T05:11:46.206Z,97344.72
2022-09-09T05:14:12.209Z,97342.53
2022-09-09T05:16:38.217Z,97333.41
2022-09-09T05:19:05.148Z,97333.72
2022-09-09T05:21:31.153Z,97328.16
2022-09-09T05:23:57.119Z,97328.06
2022-09-09T05:26:25.602Z,97326.09
2022-09-09T05:28:51.535Z,97336.59
2022-09-09T05:31:17.621Z,97338.44
2022-09-09T05:33:44.366Z,97334.78
2022-09-09T05:36:10.335Z,97325.06
2022-09-09T05:38:36.327Z,97323.88
2022-09-09T05:41:02.275Z,97326.34
2022-09-09T05:43:28.273Z,97320.84
2022-09-09T05:45:54.211Z,97329.88
2022-09-09T05:48:20.222Z,97334.06
2022-09-09T05:50:46.171Z,97333.34
2022-09-09T05:53:13.047Z,97337.53
2022-09-09T05:55:39.029Z,97341.66
2022-09-09T05:58:05.121Z,97347.56
2022-09-09T06:00:31.085Z,97345.25
2022-09-09T06:02:57.191Z,97343.59
2022-09-09T06:05:23.185Z,97358.19
2022-09-09T06:07:49.124Z,97355.22
2022-09-09T06:10:15.081Z,97357.69
2022-09-09T06:12:41.521Z,97349.41
2022-09-09T06:15:07.514Z,97344.84
2022-09-09T06:17:33.447Z,97344.22
2022-09-09T06:20:00.274Z,97337.75
2022-09-09T06:22:26.221Z,97334.34
2022-09-09T06:24:52.927Z,97332.59
2022-09-09T06:27:18.878Z,97336.09
2022-09-09T06:29:44.807Z,97336.22
2022-09-09T06:32:10.761Z,97343.81
2022-09-09T06:34:36.700Z,97345.03
2022-09-09T06:37:03.596Z,97344.13
2022-09-09T06:39:29.529Z,97346.84
2022-09-09T06:41:55.979Z,97340.56
2022-09-09T06:44:21.930Z,97336.25
2022-09-09T06:46:47.973Z,97334.44
2022-09-09T06:49:14.855Z,97336.41
2022-09-09T06:51:41.033Z,97340.06
2022-09-09T06:54:06.995Z,97338.78
2022-09-09T06:56:33.416Z,97334.94
2022-09-09T06:58:59.696Z,97345.13
2022-09-09T07:01:25.972Z,97340.28
2022-09-09T07:03:52.207Z,97343.94
2022-09-09T07:06:18.437Z,97342.31
2022-09-09T07:08:51.774Z,97341.88
2022-09-09T09:11:33.547Z,97379.75
2022-09-09T09:14:00.241Z,97381.94
2022-09-09T09:16:26.713Z,97390.78
2022-09-09T09:18:52.656Z,97388.91
2022-09-09T09:21:18.636Z,97391.59
2022-09-09T09:23:45.363Z,97383.56
2022-09-09T09:26:11.361Z,97384.63
2022-09-09T09:28:37.467Z,97384.34
2022-09-09T09:31:03.575Z,97380.31
2022-09-09T09:33:30.521Z,97383.81
2022-09-09T09:35:56.452Z,97385.13
2022-09-09T09:41:08.334Z,97365.25
2022-09-09T09:43:35.067Z,97369.47
2022-09-09T09:46:16.601Z,97365.06
2022-09-09T09:48:44.087Z,97369.88
2022-09-09T09:51:10.034Z,97373.13
2022-09-09T09:53:36.731Z,97367.88
2022-09-09T09:56:03.582Z,97373.00
2022-09-09T09:58:29.645Z,97371.56
2022-09-09T10:00:55.639Z,97363.31
2022-09-09T10:03:21.588Z,97365.97
2022-09-09T10:05:47.547Z,97366.66
2022-09-09T10:08:13.523Z,97356.78
2022-09-09T10:10:40.159Z,97359.56
2022-09-09T10:13:06.296Z,97354.06
2022-09-09T10:15:32.343Z,97358.38
2022-09-09T10:17:58.633Z,97361.94
2022-09-09T10:20:24.591Z,97354.19
2022-09-09T10:22:50.517Z,97360.66
2022-09-09T10:25:16.496Z,97361.34
2022-09-09T10:27:42.489Z,97355.94
2022-09-09T10:30:08.460Z,97352.75
2022-09-09T10:32:35.149Z,97349.00
2022-09-09T10:35:01.091Z,97343.59
2022-09-09T10:37:27.086Z,97345.22
2022-09-09T10:39:53.092Z,97341.59
2022-09-09T10:42:20.111Z,97335.97
2022-09-09T10:44:46.192Z,97332.09
2022-09-09T10:47:12.175Z,97336.34
2022-09-09T10:49:39.016Z,97335.75
2022-09-09T10:52:04.978Z,97335.31
2022-09-09T10:54:30.906Z,97338.97
2022-09-09T10:56:56.913Z,97334.44
2022-09-09T10:59:22.866Z,97335.59
2022-09-09T11:01:49.627Z,97333.06
2022-09-09T11:04:16.455Z,97330.44
2022-09-09T11:06:42.504Z,97322.66
2022-09-09T11:09:08.508Z,97333.28
2022-09-09T11:11:35.226Z,97327.50
2022-09-09T11:14:01.155Z,97329.84
2022-09-09T11:16:27.152Z,97320.31
2022-09-09T11:18:53.712Z,97319.53
2022-09-09T11:21:19.725Z,97321.47
2022-09-09T11:23:46.386Z,97325.34
2022-09-09T11:26:12.363Z,97318.03
2022-09-09T11:28:38.397Z,97320.31
2022-09-09T11:31:05.754Z,97317.28
2022-09-09T11:33:31.728Z,97310.06
2022-09-09T11:35:58.630Z,97302.22
2022-09-09T11:38:24.583Z,97300.31
2022-09-09T11:40:50.550Z,97295.13
2022-09-09T11:43:17.469Z,97285.09
2022-09-09T11:45:44.279Z,97287.34
2022-09-09T11:48:10.982Z,97273.41
2022-09-09T11:50:37.300Z,97264.44
2022-09-09T11:53:03.571Z,97271.28
2022-09-09T11:55:31.046Z,97269.91
2022-09-09T12:00:38.762Z,97274.00
2022-09-09T12:03:04.817Z,97275.50
2022-09-09T14:12:46.838Z,97157.22
2022-09-09T14:15:12.779Z,97163.56
2022-09-09T14:17:39.749Z,97166.91
2022-09-09T14:20:05.746Z,97155.03
2022-09-09T14:22:31.686Z,97160.47
2022-09-09T14:24:57.720Z,97172.94
2022-09-09T14:27:23.654Z,97159.81
2022-09-09T14:29:49.618Z,97168.16
2022-09-09T14:32:16.453Z,97165.03
2022-09-09T14:34:43.134Z,97169.53
2022-09-09T14:37:09.155Z,97182.09
2022-09-09T14:39:35.143Z,97184.88
2022-09-09T14:42:01.098Z,97181.44
2022-09-09T14:44:27.087Z,97183.69
2022-09-09T14:46:53.015Z,97190.97
2022-09-09T14:49:18.979Z,97192.09
2022-09-09T14:51:45.522Z,97199.41
2022-09-09T14:54:12.338Z,97198.25
2022-09-09T14:56:38.300Z,97198.25
2022-09-09T14:59:04.224Z,97192.09
2022-09-09T15:01:31.184Z,97190.31
2022-09-09T15:03:57.173Z,97192.28
2022-09-09T15:06:23.132Z,97201.59
2022-09-09T15:08:49.092Z,97194.84
2022-09-09T15:11:15.578Z,97198.38
2022-09-09T15:13:41.551Z,97186.25
2022-09-09T15:16:07.588Z,97195.31
2022-09-09T15:18:33.653Z,97182.97
2022-09-09T15:20:59.627Z,97172.91
2022-09-09T15:23:26.356Z,97181.78
2022-09-09T15:25:53.180Z,97175.31
2022-09-09T15:28:19.123Z,97180.91
2022-09-09T15:30:45.976Z,97189.19
2022-09-09T15:33:13.036Z,97194.19
2022-09-09T15:35:39.172Z,97202.00
2022-09-09T15:38:05.138Z,97205.75
2022-09-09T15:40:31.091Z,97198.31
2022-09-09T15:42:57.900Z,97193.19
2022-09-09T15:45:23.884Z,97195.31
2022-09-09T15:47:49.826Z,97202.69
2022-09-09T15:50:16.532Z,97190.16
2022-09-09T15:52:42.518Z,97180.94
2022-09-09T15:55:08.683Z,97179.38
2022-09-09T15:57:35.560Z,97173.50
2022-09-09T16:00:01.504Z,97172.66
2022-09-09T16:02:27.585Z,97180.94
2022-09-09T16:04:53.577Z,97180.13
2022-09-09T16:07:20.052Z,97176.31
2022-09-09T16:09:46.642Z,97183.16
2022-09-09T16:12:12.597Z,97175.66
2022-09-09T16:14:39.489Z,97182.34
2022-09-09T16:17:05.414Z,97179.63
2022-09-09T16:19:31.349Z,97183.59
2022-09-09T16:21:57.911Z,97177.44
2022-09-09T16:24:24.282Z,97175.06
2022-09-09T16:26:51.671Z,97174.53
2022-09-09T16:29:19.356Z,97171.28
2022-09-09T16:31:45.628Z,97171.25
2022-09-09T16:34:11.968Z,97165.09
2022-09-09T16:36:39.686Z,97170.28
2022-09-09T16:39:05.886Z,97166.84
2022-09-09T18:20:32.690Z,97206.28
2022-09-09T18:22:58.631Z,97214.31
2022-09-09T18:25:25.439Z,97212.72
2022-09-09T18:27:51.435Z,97213.00
2022-09-09T18:30:17.400Z,97212.72
2022-09-09T18:32:44.054Z,97216.75
2022-09-09T18:35:11.034Z,97212.44
2022-09-09T18:37:36.974Z,97215.13
2022-09-09T18:40:02.978Z,97216.47
2022-09-09T18:42:29.595Z,97216.22
2022-09-09T18:44:55.533Z,97208.16
2022-09-09T18:47:21.490Z,97196.91
2022-09-09T18:49:47.458Z,97214.88
2022-09-09T18:52:13.417Z,97213.25
2022-09-09T18:54:40.421Z,97217.81
2022-09-09T18:57:06.350Z,97214.03
2022-09-09T18:59:33.203Z,97212.19
2022-09-09T19:01:59.204Z,97211.63
2022-09-09T19:04:25.200Z,97209.78
2022-09-09T19:06:51.247Z,97214.59
2022-09-09T19:09:17.210Z,97214.59
2022-09-09T19:11:43.834Z,97206.00
2022-09-09T19:14:10.355Z,97210.81
2022-09-09T19:16:36.340Z,97215.38
2022-09-09T19:19:02.466Z,97214.31
2022-09-09T19:21:28.413Z,97218.88
2022-09-09T19:23:55.264Z,97221.50
2022-09-09T19:26:21.212Z,97228.44
2022-09-09T19:28:47.147Z,97221.22
2022-09-09T19:31:13.146Z,97225.47
2022-09-09T19:33:39.798Z,97223.50
2022-09-09T19:36:05.783Z,97232.03
2022-09-09T19:38:31.770Z,97233.69
2022-09-09T19:40:58.690Z,97239.00
2022-09-09T19:43:24.641Z,97240.38
2022-09-09T19:45:50.685Z,97237.91
2022-09-09T19:48:16.703Z,97237.94
2022-09-09T19:50:43.564Z,97238.91
2022-09-09T19:53:09.542Z,97242.44
2022-09-09T19:55:35.515Z,97242.47
2022-09-09T19:58:02.207Z,97250.13
2022-09-09T20:00:28.200Z,97245.84
2022-09-09T20:03:17.480Z,97249.81
2022-09-09T20:05:40.859Z,97253.16
2022-09-09T20:08:06.858Z,97256.16
2022-09-09T20:10:32.797Z,97257.75
2022-09-09T20:12:59.635Z,97259.09
2022-09-09T20:15:25.612Z,97261.97
2022-09-09T20:17:51.566Z,97263.59
2022-09-09T20:20:17.501Z,97263.09
2022-09-09T20:22:43.427Z,97260.13
2022-09-09T20:25:09.705Z,97262.03
2022-09-09T20:27:35.646Z,97265.28
2022-09-09T20:30:02.496Z,97264.97
2022-09-09T20:32:28.447Z,97254.69
2022-09-09T20:34:54.416Z,97262.47
2022-09-09T20:37:21.069Z,97264.38
2022-09-09T20:39:47.076Z,97266.25
2022-09-09T20:42:13.059Z,97267.88
2022-09-09T20:44:39.977Z,97266.84
2022-09-09T20:47:05.925Z,97277.50
2022-09-09T20:49:31.896Z,97279.63
2022-09-09T20:51:57.957Z,97279.63
2022-09-09T20:54:24.319Z,97279.63
2022-09-09T20:56:50.278Z,97273.84
2022-09-09T20:59:16.544Z,97279.53
2022-09-09T21:01:42.960Z,97285.91
2022-09-09T21:04:09.230Z,97284.53
2022-09-09T21:06:35.523Z,97282.97
2022-09-09T21:09:01.868Z,97283.41
2022-09-09T23:19:04.516Z,97260.41
2022-09-09T23:21:30.442Z,97259.16
2022-09-09T23:23:56.543Z,97259.16
2022-09-09T23:26:22.529Z,97254.09
2022-09-09T23:28:48.462Z,97247.25
2022-09-09T23:31:14.562Z,97247.31
2022-09-09T23:33:40.556Z,97250.38
2022-09-09T23:36:07.320Z,97256.22
2022-09-09T23:38:33.287Z,97247.00
2022-09-09T23:40:59.245Z,97251.56
2022-09-09T23:43:26.130Z,97240.13
2022-09-09T23:45:52.179Z,97250.47
2022-09-09T23:48:18.142Z,97252.91
2022-09-09T23:50:45.019Z,97248.19
2022-09-09T23:53:10.986Z,97261.06
2022-09-09T23:55:36.950Z,97252.03
2022-09-09T23:58:03.674Z,97249.88
